Impacts TAF Board INFO
FOR SITUATIONAL AWARENESS. NOT TO BE USED FOR FLIGHT PLANNING PURPOSES.
IDs:

KMIA - Miami Intl, FL, US

Issued at 0520 UTC 20 Apr 2018
Updated at 0839 UTC 20 Apr 2018
Potential Impact None Slight Moderate High
Time0753Z 20/09Z 20/10Z 20/11Z 20/12Z 20/13Z 20/14Z 20/15Z 20/16Z 20/17Z 20/18Z 20/19Z 20/20Z 20/21Z>>
Type OBS PRVL PRVL PRVL PRVL PRVL PRVL PRVL PRVL PRVL PRVL PRVL PRVL PRVL
VIS 10 >6 >6 >6 >6 >6 >6 >6 >6 >6 >6 >6 >6 >6
CIG -- -- -- -- -- -- -- -- -- -- -- -- -- --
Cover SCT SCT SCT SCT SCT SCT SCT SCT SCT SCT SCT SCT SCT SCT
FltCat VFR VFR VFR VFR VFR VFR VFR VFR VFR VFR VFR VFR VFR VFR
WX -- -- -- -- -- -- -- -- -- -- -- -- -- --
WDir 210 VRB VRB VRB VRB VRB VRB VRB VRB 100 100 100 100 100
WSpd 3 5 5 5 5 5 5 5 5 10 10 10 10 10
WGst -- -- -- -- -- -- -- -- -- -- -- -- -- --

Raw TAF
KMIA 200520Z 2006/2112 VRB05KT P6SM SCT250
  FM201700 10010KT P6SM SCT030
  FM210000 10007KT P6SM FEW040 FEW250


Raw METAR
KMIA 200753Z 21003KT 10SM FEW035 SCT250 21/19 A3006 RMK AO2 SLP180 T02110189
KMIA 200653Z 23003KT 10SM FEW035 SCT250 22/19 A3007 RMK AO2 SLP183 T02170189
KMIA 200553Z 24004KT 10SM FEW035 SCT250 22/19 A3008 RMK AO2 SLP185 T02220189 10250 20222 56009

METAR Board
Radar Display
Forecast Discussion

FOR SITUATIONAL AWARENESS. NOT TO BE USED FOR FLIGHT PLANNING PURPOSES.